Time;durP1;ratioP1;P1;durP2;ratioP2;P2;SDS_P1;SDS_P2;PMS_P1;PMS_P2;Temp;Humidity;BMP_temperature;BMP_pressure;BME280_temperature;BME280_humidity;BME280_pressure;Samples;Min_cycle;Max_cycle;Signal;HPM_P1;HPM_P2
2023/12/17 00:01:56;;;;;;;14.75;8.00;;;9.50;96.80;;;;;;5071770;28;20102;-81
2023/12/17 00:04:21;;;;;;;12.95;5.85;;;9.50;96.80;;;;;;5054691;28;20514;-81
2023/12/17 00:06:47;;;;;;;18.75;6.68;;;9.50;96.80;;;;;;5038180;28;20040;-83
2023/12/17 00:09:13;;;;;;;15.73;6.43;;;9.50;96.70;;;;;;5054655;28;20037;-82
2023/12/17 00:11:40;;;;;;;13.13;6.68;;;9.60;96.60;;;;;;5054632;28;20094;-83
2023/12/17 00:14:06;;;;;;;12.93;7.10;;;9.60;96.60;;;;;;5054842;28;20036;-83
2023/12/17 00:16:32;;;;;;;16.30;7.30;;;9.50;96.60;;;;;;5054524;28;20405;-81
2023/12/17 00:18:57;;;;;;;17.23;7.63;;;9.50;96.70;;;;;;5071171;28;20032;-81
2023/12/17 00:21:23;;;;;;;14.80;7.50;;;9.50;96.80;;;;;;5037840;28;20043;-81
2023/12/17 00:23:49;;;;;;;16.10;6.30;;;9.60;96.80;;;;;;5070977;28;20048;-85
2023/12/17 00:26:15;;;;;;;18.33;6.75;;;9.60;96.80;;;;;;5071331;28;20131;-83
2023/12/17 00:28:41;;;;;;;9.63;5.60;;;9.50;96.80;;;;;;5054470;28;20052;-82
2023/12/17 00:31:06;;;;;;;11.07;5.97;;;9.60;96.80;;;;;;5054690;28;20040;-81
2023/12/17 00:33:32;;;;;;;11.23;6.18;;;9.60;96.70;;;;;;5037887;28;20079;-83
2023/12/17 00:35:58;;;;;;;13.23;6.25;;;9.60;96.80;;;;;;5054734;28;20033;-81
2023/12/17 00:38:24;;;;;;;13.02;5.93;;;9.60;96.70;;;;;;5070823;28;20045;-81
2023/12/17 00:40:49;;;;;;;14.70;5.78;;;9.60;96.70;;;;;;5071333;28;20484;-82
2023/12/17 00:43:15;;;;;;;13.55;6.15;;;9.60;96.70;;;;;;5037685;28;20104;-80
2023/12/17 00:45:41;;;;;;;10.75;5.85;;;9.60;96.70;;;;;;5040833;28;20040;-83
2023/12/17 00:48:07;;;;;;;12.68;5.43;;;9.70;96.60;;;;;;5058015;28;20036;-81
2023/12/17 00:50:32;;;;;;;14.10;5.60;;;9.60;96.50;;;;;;5041427;28;20476;-82
2023/12/17 00:52:58;;;;;;;12.77;6.32;;;9.60;96.40;;;;;;5074380;28;20401;-82
2023/12/17 00:55:24;;;;;;;15.48;7.50;;;9.60;96.50;;;;;;5057760;28;20348;-79
2023/12/17 00:57:50;;;;;;;14.95;6.85;;;9.60;96.60;;;;;;5074504;28;20393;-84
2023/12/17 01:00:15;;;;;;;11.00;6.60;;;9.60;96.60;;;;;;5057559;28;20503;-83
2023/12/17 01:02:42;;;;;;;11.70;6.50;;;9.60;96.60;;;;;;5041248;28;20044;-82
2023/12/17 01:05:08;;;;;;;15.27;6.15;;;9.60;96.70;;;;;;5057514;28;20088;-84
2023/12/17 01:07:34;;;;;;;17.73;7.53;;;9.60;96.70;;;;;;5057409;28;20040;-81
2023/12/17 01:09:59;;;;;;;10.63;5.95;;;9.60;96.70;;;;;;5057444;28;20372;-84
2023/12/17 01:12:25;;;;;;;16.02;7.38;;;9.60;96.70;;;;;;5074114;28;20040;-83
2023/12/17 01:14:51;;;;;;;20.52;8.15;;;9.60;96.60;;;;;;5057645;28;20127;-84
2023/12/17 01:17:16;;;;;;;21.05;8.45;;;9.50;96.70;;;;;;5040886;28;20400;-83
2023/12/17 01:19:42;;;;;;;21.02;9.55;;;9.50;96.80;;;;;;5040940;28;20659;-84
2023/12/17 01:22:08;;;;;;;15.23;7.63;;;9.50;96.80;;;;;;5057378;28;20049;-84
2023/12/17 01:24:34;;;;;;;11.38;6.22;;;9.50;96.90;;;;;;5057115;28;20043;-82
2023/12/17 01:27:00;;;;;;;14.50;5.80;;;9.50;96.90;;;;;;5073981;28;20044;-81
2023/12/17 01:29:25;;;;;;;14.05;5.75;;;9.50;96.90;;;;;;5057361;28;20535;-82
2023/12/17 01:31:51;;;;;;;11.32;5.90;;;9.50;96.90;;;;;;5057046;28;20481;-81
2023/12/17 01:34:20;;;;;;;12.70;6.82;;;9.50;96.80;;;;;;5040428;28;20085;-82
2023/12/17 01:36:46;;;;;;;11.73;6.47;;;9.50;96.90;;;;;;5057543;28;20041;-83
2023/12/17 01:39:11;;;;;;;15.00;7.03;;;9.50;96.80;;;;;;5040544;28;20476;-81
2023/12/17 01:41:37;;;;;;;12.48;6.13;;;9.50;96.80;;;;;;5056618;28;20484;-83
2023/12/17 01:44:03;;;;;;;11.35;6.43;;;9.50;96.90;;;;;;5073518;28;20053;-82
2023/12/17 01:46:29;;;;;;;12.15;6.75;;;9.50;96.80;;;;;;5073370;28;20045;-80
2023/12/17 01:48:55;;;;;;;10.65;5.72;;;9.40;96.80;;;;;;5056972;28;20028;-83
2023/12/17 01:51:21;;;;;;;11.18;5.50;;;9.40;96.90;;;;;;5073071;28;20477;-81
2023/12/17 01:53:46;;;;;;;15.57;6.10;;;9.40;96.80;;;;;;5056521;28;20048;-80
2023/12/17 01:56:14;;;;;;;16.70;6.55;;;9.40;96.70;;;;;;5056624;28;20131;-81
2023/12/17 01:58:40;;;;;;;12.68;6.45;;;9.40;96.60;;;;;;5056454;28;20047;-80
2023/12/17 02:01:07;;;;;;;11.27;5.45;;;9.40;96.60;;;;;;5056543;28;20076;-81
2023/12/17 02:03:33;;;;;;;20.52;6.40;;;9.30;96.70;;;;;;5072932;28;20033;-81
2023/12/17 02:06:00;;;;;;;9.73;5.97;;;9.40;96.70;;;;;;5056375;28;20127;-83
2023/12/17 02:08:26;;;;;;;10.73;5.07;;;9.30;96.80;;;;;;5056380;28;20051;-82
2023/12/17 02:10:53;;;;;;;14.25;5.97;;;9.30;97.00;;;;;;5056547;28;20040;-81
2023/12/17 02:13:19;;;;;;;16.27;6.78;;;9.30;97.00;;;;;;5056468;28;20052;-84
2023/12/17 02:15:45;;;;;;;12.57;7.00;;;9.30;97.00;;;;;;5039905;28;20040;-80
2023/12/17 02:18:11;;;;;;;10.57;6.13;;;9.30;96.90;;;;;;5056001;28;20043;-84
2023/12/17 02:20:36;;;;;;;9.27;4.90;;;9.40;96.80;;;;;;5056097;28;20090;-82
2023/12/17 02:23:03;;;;;;;8.68;5.20;;;9.40;96.90;;;;;;5039442;28;20097;-84
2023/12/17 02:25:29;;;;;;;13.30;6.78;;;9.40;96.90;;;;;;5072605;28;20041;-83
2023/12/17 02:27:56;;;;;;;10.82;6.57;;;9.30;96.80;;;;;;5072500;28;20032;-82
2023/12/17 02:30:22;;;;;;;9.73;6.18;;;9.30;96.70;;;;;;5055855;28;20127;-82
2023/12/17 02:32:50;;;;;;;11.95;5.22;;;9.30;96.80;;;;;;5056127;28;20139;-80
2023/12/17 02:35:16;;;;;;;16.55;6.57;;;9.30;96.80;;;;;;5072634;28;20060;-82
2023/12/17 02:37:41;;;;;;;10.55;5.70;;;9.40;96.60;;;;;;5039437;28;20476;-81
2023/12/17 02:40:08;;;;;;;13.90;6.30;;;9.30;96.50;;;;;;5055736;28;20036;-82
2023/12/17 02:42:33;;;;;;;11.15;5.70;;;9.20;96.50;;;;;;5072140;28;20386;-84
2023/12/17 02:44:59;;;;;;;16.48;6.50;;;9.30;96.60;;;;;;5072350;28;20195;-84
2023/12/17 02:47:25;;;;;;;11.50;6.22;;;9.20;96.50;;;;;;5055557;28;20094;-82
2023/12/17 02:49:50;;;;;;;15.68;6.18;;;9.10;96.70;;;;;;5055389;28;20078;-78
2023/12/17 02:52:16;;;;;;;10.68;5.95;;;9.20;96.70;;;;;;5072401;28;20032;-82
2023/12/17 02:54:43;;;;;;;13.82;5.80;;;9.10;96.80;;;;;;5055568;28;20480;-83
2023/12/17 02:57:08;;;;;;;17.85;6.53;;;9.10;96.90;;;;;;5072023;28;20044;-80
2023/12/17 02:59:34;;;;;;;11.45;6.10;;;9.10;96.90;;;;;;5038829;28;20073;-82
2023/12/17 03:02:00;;;;;;;11.23;5.60;;;9.20;96.70;;;;;;5072292;28;20041;-84
2023/12/17 03:04:25;;;;;;;16.08;6.95;;;9.20;96.60;;;;;;5055202;28;20037;-82
2023/12/17 03:06:51;;;;;;;12.15;5.70;;;9.10;96.90;;;;;;5038059;28;20047;-83
2023/12/17 03:09:17;;;;;;;8.63;5.18;;;9.20;96.80;;;;;;5055254;28;20075;-80
2023/12/17 03:11:43;;;;;;;14.77;6.47;;;9.20;96.80;;;;;;5072125;28;20075;-83
2023/12/17 03:14:09;;;;;;;17.45;7.25;;;9.20;96.80;;;;;;5055446;28;20043;-82
2023/12/17 03:16:35;;;;;;;13.02;6.65;;;9.10;96.90;;;;;;5071740;28;20093;-82
2023/12/17 03:19:01;;;;;;;12.88;5.97;;;9.20;97.00;;;;;;5072091;28;20089;-80
2023/12/17 03:21:26;;;;;;;12.43;6.80;;;9.20;97.00;;;;;;5055412;28;20037;-82
2023/12/17 03:23:53;;;;;;;16.52;6.03;;;9.20;96.90;;;;;;5071550;28;20047;-80
2023/12/17 03:26:20;;;;;;;16.20;6.57;;;9.20;97.00;;;;;;5038501;28;20041;-83
2023/12/17 03:28:46;;;;;;;12.57;6.05;;;9.20;97.00;;;;;;5054941;28;20041;-83
2023/12/17 03:31:13;;;;;;;17.85;7.68;;;9.20;97.00;;;;;;5038439;28;20040;-82
2023/12/17 03:33:43;;;;;;;14.30;6.28;;;9.10;97.00;;;;;;5105423;28;20045;-81
2023/12/17 03:36:13;;;;;;;13.73;6.93;;;9.10;97.00;;;;;;5055446;28;20032;-85
2023/12/17 03:38:38;;;;;;;16.70;7.40;;;9.10;97.00;;;;;;5055133;28;20504;-81
2023/12/17 03:41:04;;;;;;;12.57;7.05;;;9.10;97.10;;;;;;5071430;28;20107;-84
2023/12/17 03:43:30;;;;;;;18.77;7.43;;;9.10;97.10;;;;;;5054815;28;20127;-79
2023/12/17 03:45:55;;;;;;;13.25;6.47;;;9.10;97.00;;;;;;5055176;28;20040;-80
2023/12/17 03:48:21;;;;;;;13.63;7.40;;;9.10;97.00;;;;;;5054722;28;20040;-81
2023/12/17 03:50:47;;;;;;;11.40;6.65;;;9.10;96.90;;;;;;5038437;28;20094;-81
2023/12/17 03:53:12;;;;;;;13.93;7.03;;;9.10;97.00;;;;;;5055028;28;20079;-83
2023/12/17 03:55:38;;;;;;;12.57;7.15;;;9.10;96.90;;;;;;5054779;28;20500;-81
2023/12/17 03:58:04;;;;;;;15.13;8.00;;;9.10;96.70;;;;;;5071264;28;20076;-81
2023/12/17 04:00:30;;;;;;;16.23;7.65;;;9.10;96.80;;;;;;5038491;28;20388;-81
2023/12/17 04:02:56;;;;;;;8.98;7.47;;;9.00;96.80;;;;;;5038066;28;20044;-82
2023/12/17 04:05:24;;;;;;;13.23;6.90;;;9.10;96.80;;;;;;5054837;28;20036;-81
2023/12/17 04:07:50;;;;;;;16.77;7.38;;;9.00;96.60;;;;;;5071450;28;20473;-82
2023/12/17 04:10:16;;;;;;;17.65;7.85;;;9.00;96.70;;;;;;5038004;28;20052;-83
2023/12/17 04:12:42;;;;;;;13.63;7.35;;;9.00;96.70;;;;;;5038264;28;20044;-80
2023/12/17 04:15:08;;;;;;;14.95;7.45;;;9.00;96.70;;;;;;5054524;28;20481;-82
2023/12/17 04:17:33;;;;;;;19.10;7.68;;;9.00;96.80;;;;;;5054443;28;20123;-82
2023/12/17 04:19:59;;;;;;;16.85;7.78;;;8.90;96.70;;;;;;5041750;28;20174;-82
2023/12/17 04:22:25;;;;;;;15.13;6.93;;;8.90;96.80;;;;;;5108999;28;20082;-81
2023/12/17 04:24:50;;;;;;;11.07;7.80;;;8.90;97.00;;;;;;5074974;28;20047;-84
2023/12/17 04:27:16;;;;;;;10.85;8.00;;;8.90;96.90;;;;;;5075074;28;20032;-83
2023/12/17 04:29:42;;;;;;;15.70;7.38;;;8.80;96.90;;;;;;5058496;28;20535;-80
2023/12/17 04:32:08;;;;;;;13.90;8.27;;;8.80;96.90;;;;;;5058431;28;20484;-83
2023/12/17 04:34:34;;;;;;;13.05;8.50;;;8.80;96.90;;;;;;5041713;28;20101;-81
2023/12/17 04:36:59;;;;;;;19.83;8.27;;;8.80;97.00;;;;;;5058271;28;20040;-83
2023/12/17 04:39:28;;;;;;;17.40;7.68;;;8.80;97.00;;;;;;5058000;28;20461;-83
2023/12/17 04:41:54;;;;;;;17.42;8.98;;;8.80;96.90;;;;;;5057749;28;20146;-81
2023/12/17 04:44:20;;;;;;;16.63;7.97;;;8.80;96.90;;;;;;5041359;28;20075;-83
2023/12/17 04:46:45;;;;;;;14.15;8.63;;;8.80;96.90;;;;;;5058101;28;20104;-80
2023/12/17 04:49:11;;;;;;;14.52;8.25;;;8.80;97.00;;;;;;5074560;28;20559;-81
2023/12/17 04:51:37;;;;;;;16.85;6.97;;;8.90;96.90;;;;;;5074389;28;20043;-83
2023/12/17 04:54:03;;;;;;;13.25;8.48;;;8.90;96.80;;;;;;5074681;28;20041;-83
2023/12/17 04:56:29;;;;;;;19.23;9.70;;;8.90;96.80;;;;;;5057605;28;20043;-83
2023/12/17 04:58:54;;;;;;;15.70;9.40;;;8.90;96.60;;;;;;5041108;28;20489;-83
2023/12/17 05:01:20;;;;;;;18.20;9.60;;;8.80;96.70;;;;;;5041200;28;20139;-82
2023/12/17 05:03:46;;;;;;;20.73;8.60;;;8.90;96.70;;;;;;5057543;28;20036;-83
2023/12/17 05:06:11;;;;;;;14.98;8.55;;;8.90;96.70;;;;;;5057621;28;20302;-81
2023/12/17 05:08:37;;;;;;;13.23;7.90;;;8.90;96.70;;;;;;5074371;28;20032;-83
2023/12/17 05:11:03;;;;;;;12.85;8.43;;;9.00;96.60;;;;;;5057469;28;20459;-82
2023/12/17 05:13:29;;;;;;;20.45;8.90;;;9.00;96.40;;;;;;5041156;28;20049;-81
2023/12/17 05:15:54;;;;;;;14.60;8.57;;;9.00;96.30;;;;;;5040680;28;20086;-83
2023/12/17 05:18:20;;;;;;;18.23;9.65;;;9.00;96.30;;;;;;5057806;28;20048;-82
2023/12/17 05:20:46;;;;;;;16.52;9.13;;;9.00;96.20;;;;;;5057264;28;20047;-81
2023/12/17 05:23:14;;;;;;;14.60;8.75;;;9.00;96.30;;;;;;5057095;28;20051;-83
2023/12/17 05:25:40;;;;;;;12.13;8.23;;;8.90;96.40;;;;;;5057763;28;20102;-81
2023/12/17 05:28:09;;;;;;;19.25;9.35;;;9.00;96.40;;;;;;5073706;28;20427;-81
2023/12/17 05:30:37;;;;;;;20.65;10.00;;;8.90;96.50;;;;;;5040308;28;20041;-83
2023/12/17 05:33:03;;;;;;;19.33;10.30;;;8.90;96.50;;;;;;5073685;28;20041;-81
2023/12/17 05:35:29;;;;;;;16.13;9.63;;;9.00;96.50;;;;;;5056970;28;20109;-81
2023/12/17 05:37:54;;;;;;;22.55;11.02;;;9.00;96.60;;;;;;5056949;28;20079;-81
2023/12/17 05:40:20;;;;;;;20.55;11.18;;;9.10;96.50;;;;;;5056934;28;20037;-83
2023/12/17 05:42:46;;;;;;;20.42;11.75;;;9.00;96.60;;;;;;5056640;28;20102;-82
2023/12/17 05:45:12;;;;;;;17.80;10.98;;;9.10;96.50;;;;;;5107656;28;20051;-82
2023/12/17 05:47:39;;;;;;;18.15;10.90;;;9.00;96.60;;;;;;5056684;28;20043;-84
2023/12/17 05:50:05;;;;;;;19.48;10.60;;;9.10;96.50;;;;;;5073434;28;20043;-80
2023/12/17 05:52:32;;;;;;;18.45;10.70;;;9.10;96.40;;;;;;5057006;28;20110;-82
2023/12/17 05:54:57;;;;;;;17.95;10.98;;;9.10;96.40;;;;;;5056769;28;20200;-83
2023/12/17 05:57:23;;;;;;;16.85;10.43;;;9.10;96.40;;;;;;5039884;28;20141;-81
2023/12/17 05:59:48;;;;;;;17.30;9.65;;;9.10;96.60;;;;;;5073292;28;20099;-82
2023/12/17 06:02:14;;;;;;;22.10;11.55;;;9.10;96.60;;;;;;5040124;28;20041;-82
2023/12/17 06:04:40;;;;;;;22.65;12.98;;;9.10;96.60;;;;;;5056627;28;20127;-80
2023/12/17 06:07:06;;;;;;;18.77;10.20;;;9.10;96.60;;;;;;5056385;28;20036;-80
2023/12/17 06:09:32;;;;;;;20.58;11.43;;;9.10;96.60;;;;;;5039769;28;20048;-82
2023/12/17 06:11:57;;;;;;;18.85;12.05;;;9.10;96.50;;;;;;5056301;28;20033;-83
2023/12/17 06:14:24;;;;;;;18.70;9.95;;;9.10;96.50;;;;;;5039686;28;20063;-81
2023/12/17 06:16:50;;;;;;;20.55;11.27;;;9.20;96.60;;;;;;5073020;28;20040;-82
2023/12/17 06:19:16;;;;;;;29.58;14.20;;;9.10;96.60;;;;;;5056200;28;20036;-83
2023/12/17 06:21:41;;;;;;;29.80;12.18;;;9.20;96.70;;;;;;5072726;28;20113;-83
2023/12/17 06:24:07;;;;;;;25.25;14.20;;;9.10;96.60;;;;;;5056083;28;20041;-81
2023/12/17 06:26:36;;;;;;;26.15;14.10;;;9.10;96.70;;;;;;5056006;28;20399;-80
2023/12/17 06:29:02;;;;;;;27.27;14.15;;;9.10;96.80;;;;;;5072633;28;20038;-83
2023/12/17 06:31:28;;;;;;;25.15;13.88;;;9.10;96.90;;;;;;5055893;28;20037;-82
2023/12/17 06:33:54;;;;;;;25.58;12.93;;;9.10;96.90;;;;;;5039411;28;20045;-81
2023/12/17 06:36:20;;;;;;;23.08;12.00;;;9.10;96.90;;;;;;5055870;28;20048;-81
2023/12/17 06:38:46;;;;;;;26.05;11.68;;;9.20;96.90;;;;;;5055859;28;20101;-82
2023/12/17 06:41:12;;;;;;;21.35;11.57;;;9.10;96.90;;;;;;5071999;28;20040;-83
2023/12/17 06:43:41;;;;;;;25.98;11.07;;;9.10;96.90;;;;;;5071831;28;20493;-81
2023/12/17 06:46:07;;;;;;;15.85;9.95;;;9.10;97.10;;;;;;5072216;28;20558;-80
2023/12/17 06:48:36;;;;;;;20.65;11.73;;;9.10;97.10;;;;;;5055881;28;20036;-80
2023/12/17 06:51:03;;;;;;;22.50;11.30;;;9.10;97.20;;;;;;5055552;28;20094;-81
2023/12/17 06:53:29;;;;;;;23.05;11.63;;;9.20;97.10;;;;;;5055496;28;20085;-80
2023/12/17 06:55:55;;;;;;;19.50;10.75;;;9.10;97.20;;;;;;5038799;28;20045;-82
2023/12/17 06:58:21;;;;;;;20.02;10.90;;;9.10;97.00;;;;;;5055567;28;20047;-80
2023/12/17 07:00:47;;;;;;;29.00;10.88;;;9.20;97.00;;;;;;5039152;28;20045;-82
2023/12/17 07:03:13;;;;;;;23.15;11.32;;;9.20;97.10;;;;;;5038730;28;20512;-80
2023/12/17 07:05:38;;;;;;;18.55;10.32;;;9.30;97.10;;;;;;5072008;28;20040;-80
2023/12/17 07:08:04;;;;;;;24.13;10.27;;;9.20;97.10;;;;;;5071861;28;20190;-84
2023/12/17 07:10:30;;;;;;;21.80;9.10;;;9.20;97.00;;;;;;5038922;28;20032;-80
2023/12/17 07:12:55;;;;;;;23.33;10.30;;;9.20;97.10;;;;;;5071931;28;20491;-83
2023/12/17 07:15:21;;;;;;;22.15;10.93;;;9.20;97.10;;;;;;5038830;28;20125;-81
2023/12/17 07:17:47;;;;;;;29.63;11.68;;;9.20;97.00;;;;;;5055160;28;20174;-80
2023/12/17 07:20:12;;;;;;;23.13;10.85;;;9.20;97.10;;;;;;5038841;28;20044;-81
2023/12/17 07:22:38;;;;;;;20.73;10.57;;;9.20;97.10;;;;;;5038539;28;20047;-81
2023/12/17 07:25:05;;;;;;;20.25;10.88;;;9.20;97.00;;;;;;5055086;28;20040;-82
2023/12/17 07:27:33;;;;;;;18.52;9.43;;;9.30;97.00;;;;;;5055426;28;20569;-84
2023/12/17 07:29:59;;;;;;;26.42;12.00;;;9.20;97.00;;;;;;5055028;28;20037;-83
2023/12/17 07:32:24;;;;;;;23.58;12.65;;;9.20;97.10;;;;;;5054815;28;20083;-84
2023/12/17 07:34:50;;;;;;;24.63;12.93;;;9.20;97.10;;;;;;5071584;28;20105;-85
2023/12/17 07:37:16;;;;;;;34.63;18.15;;;9.20;97.10;;;;;;5038169;28;20135;-80
2023/12/17 07:39:42;;;;;;;30.40;17.00;;;9.20;97.00;;;;;;5054927;28;20044;-81
2023/12/17 07:42:07;;;;;;;28.73;15.52;;;9.10;97.10;;;;;;5037990;28;20061;-84
2023/12/17 07:44:33;;;;;;;31.60;17.88;;;9.20;97.30;;;;;;5071810;28;20059;-81
2023/12/17 07:46:59;;;;;;;36.78;20.95;;;9.10;97.20;;;;;;5071551;28;20416;-84
2023/12/17 07:49:25;;;;;;;35.17;20.73;;;9.10;97.30;;;;;;5054774;28;20037;-80
2023/12/17 07:51:52;;;;;;;38.47;24.33;;;9.10;97.30;;;;;;5055377;28;20304;-83
2023/12/17 07:54:18;;;;;;;37.70;21.98;;;9.10;97.20;;;;;;5058880;28;20396;-85
2023/12/17 07:56:43;;;;;;;41.13;24.00;;;9.10;97.20;;;;;;5042880;28;20037;-84
2023/12/17 07:59:09;;;;;;;36.85;24.20;;;9.00;97.20;;;;;;5041999;28;20036;-83
2023/12/17 08:01:35;;;;;;;34.60;21.15;;;9.00;97.30;;;;;;5041279;28;20579;-82
2023/12/17 08:04:01;;;;;;;41.47;22.90;;;9.00;97.30;;;;;;5041315;28;20040;-83
2023/12/17 08:06:27;;;;;;;36.35;21.50;;;9.00;97.30;;;;;;5041519;28;20040;-83
2023/12/17 08:08:54;;;;;;;34.38;18.95;;;9.00;97.30;;;;;;5058303;28;20041;-81
2023/12/17 08:11:20;;;;;;;25.85;15.52;;;8.90;97.50;;;;;;5058447;28;20032;-83
2023/12/17 08:13:46;;;;;;;24.98;15.77;;;9.00;97.40;;;;;;5058728;28;20036;-82
2023/12/17 08:16:12;;;;;;;26.73;16.15;;;9.00;97.20;;;;;;5075128;28;20037;-77
2023/12/17 08:18:38;;;;;;;27.85;16.00;;;9.00;97.30;;;;;;5075692;28;20040;-83
2023/12/17 08:21:04;;;;;;;27.48;15.75;;;8.90;97.30;;;;;;5059088;28;20388;-83
2023/12/17 08:23:29;;;;;;;26.48;15.10;;;8.80;97.40;;;;;;5058782;28;20381;-82
2023/12/17 08:25:55;;;;;;;34.50;16.75;;;8.90;97.30;;;;;;5075421;28;20074;-82
2023/12/17 08:28:22;;;;;;;31.17;17.48;;;8.80;97.20;;;;;;5075346;28;20404;-79
2023/12/17 08:30:48;;;;;;;33.83;18.60;;;8.90;97.00;;;;;;5058720;28;20124;-79
2023/12/17 08:33:15;;;;;;;32.50;18.13;;;8.90;97.00;;;;;;5042139;28;20040;-81
2023/12/17 08:35:43;;;;;;;32.60;16.55;;;8.90;96.90;;;;;;5058961;28;20044;-82
2023/12/17 08:38:09;;;;;;;29.73;16.80;;;8.90;96.80;;;;;;5075120;28;20047;-82
2023/12/17 08:40:39;;;;;;;25.83;13.02;;;8.90;96.90;;;;;;5042177;28;20044;-81
2023/12/17 08:43:06;;;;;;;34.88;14.52;;;8.90;96.80;;;;;;5074894;28;20445;-82
2023/12/17 08:45:33;;;;;;;24.98;13.65;;;8.80;96.90;;;;;;5058448;28;20048;-82
2023/12/17 08:47:59;;;;;;;29.45;13.63;;;8.90;96.90;;;;;;5108897;28;20044;-83
2023/12/17 08:50:25;;;;;;;28.15;15.57;;;8.90;96.90;;;;;;5075031;28;20123;-82
2023/12/17 08:52:51;;;;;;;38.33;16.92;;;9.00;96.70;;;;;;5041719;28;20044;-80
2023/12/17 08:55:17;;;;;;;31.38;17.35;;;9.00;96.70;;;;;;5058844;28;20047;-84
2023/12/17 08:57:43;;;;;;;33.20;16.83;;;9.00;96.60;;;;;;5041596;28;20048;-82
2023/12/17 09:00:09;;;;;;;24.00;14.85;;;9.10;96.50;;;;;;5058294;28;20044;-82
2023/12/17 09:02:35;;;;;;;28.40;15.55;;;9.10;96.60;;;;;;5058366;28;20394;-84
2023/12/17 09:05:02;;;;;;;31.83;14.27;;;9.10;96.50;;;;;;5057246;28;20128;-84
2023/12/17 09:07:28;;;;;;;27.90;15.75;;;9.10;96.40;;;;;;5058279;28;20040;-81
2023/12/17 09:09:53;;;;;;;33.88;16.20;;;9.10;96.20;;;;;;5036252;28;20392;-81
2023/12/17 09:12:19;;;;;;;32.80;17.83;;;9.20;96.20;;;;;;5060996;28;20040;-81
2023/12/17 09:14:45;;;;;;;32.17;15.65;;;9.20;96.30;;;;;;5084498;28;20048;-84
2023/12/17 09:17:11;;;;;;;26.27;13.43;;;9.20;96.20;;;;;;5097926;28;20036;-82
2023/12/17 09:19:36;;;;;;;33.40;15.13;;;9.20;96.40;;;;;;5084674;28;20044;-81
2023/12/17 09:22:02;;;;;;;30.92;13.57;;;9.30;96.00;;;;;;5070157;28;20048;-82
2023/12/17 09:24:28;;;;;;;32.80;13.70;;;9.30;96.20;;;;;;5047332;28;20062;-83
2023/12/17 09:26:54;;;;;;;26.25;15.57;;;9.30;95.80;;;;;;5077456;28;20049;-80
2023/12/17 09:29:20;;;;;;;41.97;16.17;;;9.30;95.80;;;;;;5054074;28;20331;-85
2023/12/17 09:31:46;;;;;;;28.30;15.35;;;9.30;95.90;;;;;;5055387;28;20048;-81
2023/12/17 09:34:14;;;;;;;29.42;16.23;;;9.30;95.90;;;;;;5074779;28;20045;-79
2023/12/17 09:36:41;;;;;;;33.22;15.40;;;9.30;96.00;;;;;;5076340;28;20070;-83
2023/12/17 09:39:10;;;;;;;30.73;16.58;;;9.30;95.90;;;;;;5058631;28;20069;-81
2023/12/17 09:41:36;;;;;;;31.10;15.15;;;9.30;95.70;;;;;;5072950;28;20138;-83
2023/12/17 09:44:04;;;;;;;31.30;15.52;;;9.20;95.70;;;;;;5072557;28;20361;-82
2023/12/17 09:46:30;;;;;;;33.53;14.93;;;9.30;95.70;;;;;;5062337;28;20046;-82
2023/12/17 09:48:56;;;;;;;32.03;14.57;;;9.30;95.60;;;;;;5055746;28;20052;-81
2023/12/17 09:51:23;;;;;;;31.67;15.57;;;9.20;95.60;;;;;;5062848;28;20476;-79
2023/12/17 09:53:49;;;;;;;28.92;14.57;;;9.30;95.60;;;;;;5076410;28;20036;-82
2023/12/17 09:56:15;;;;;;;32.65;16.67;;;9.20;95.50;;;;;;5039082;28;20481;-82
2023/12/17 09:58:40;;;;;;;53.17;29.48;;;9.20;95.60;;;;;;5056138;28;20040;-82
2023/12/17 10:01:06;;;;;;;29.40;16.13;;;9.20;95.60;;;;;;5075464;28;20051;-80
2023/12/17 10:03:33;;;;;;;34.15;15.65;;;9.20;95.40;;;;;;5056330;28;20040;-83
2023/12/17 10:06:01;;;;;;;38.30;14.20;;;9.20;95.50;;;;;;5077822;28;20493;-84
2023/12/17 10:08:27;;;;;;;33.03;16.10;;;9.20;95.50;;;;;;5111963;27;20094;-80
2023/12/17 10:10:53;;;;;;;28.38;15.65;;;9.20;95.60;;;;;;5070710;28;20039;-81
2023/12/17 10:13:19;;;;;;;31.58;14.40;;;9.30;95.40;;;;;;5061193;28;20040;-82
2023/12/17 10:15:53;;;;;;;30.23;14.88;;;9.30;95.30;;;;;;5071070;28;20550;-82
2023/12/17 10:18:19;;;;;;;38.38;18.23;;;9.40;95.00;;;;;;5049414;28;21141;-81
2023/12/17 10:20:46;;;;;;;37.42;18.35;;;9.30;95.00;;;;;;5073823;28;20043;-84
2023/12/17 10:23:13;;;;;;;40.45;19.38;;;9.30;95.00;;;;;;5046755;28;20126;-81
2023/12/17 10:25:40;;;;;;;36.80;19.80;;;9.30;95.10;;;;;;5061212;28;20131;-81
2023/12/17 10:28:07;;;;;;;36.45;19.08;;;9.30;95.20;;;;;;5075195;28;20098;-82
2023/12/17 10:30:34;;;;;;;42.33;19.40;;;9.30;95.10;;;;;;5075167;28;20036;-82
2023/12/17 10:33:01;;;;;;;36.13;19.20;;;9.30;95.10;;;;;;5043341;28;20053;-81
2023/12/17 10:35:29;;;;;;;30.55;15.68;;;9.30;95.20;;;;;;5075074;28;20052;-81
2023/12/17 10:38:00;;;;;;;27.83;15.95;;;9.30;95.20;;;;;;5074053;28;20446;-81
2023/12/17 10:40:27;;;;;;;31.70;17.38;;;9.30;94.90;;;;;;5056366;28;20048;-81
2023/12/17 10:42:56;;;;;;;33.55;16.20;;;9.30;94.90;;;;;;5069775;28;20139;-81
2023/12/17 10:45:22;;;;;;;38.20;19.73;;;9.30;94.90;;;;;;5060163;28;20045;-81
2023/12/17 10:47:52;;;;;;;27.98;16.02;;;9.30;94.80;;;;;;5057943;28;20047;-82
2023/12/17 10:50:19;;;;;;;39.47;18.83;;;9.40;94.80;;;;;;5053855;28;20044;-80
2023/12/17 10:52:46;;;;;;;30.00;16.25;;;9.40;94.70;;;;;;5043792;28;20395;-81
2023/12/17 10:55:12;;;;;;;39.95;15.90;;;9.30;94.80;;;;;;5072002;28;20071;-83
2023/12/17 10:57:40;;;;;;;34.55;17.90;;;9.30;94.80;;;;;;5059995;28;20040;-83
2023/12/17 11:00:08;;;;;;;29.70;14.65;;;9.30;94.70;;;;;;5070464;28;20056;-81
2023/12/17 11:02:34;;;;;;;34.15;16.55;;;9.40;94.80;;;;;;5058815;28;20044;-81
2023/12/17 11:05:00;;;;;;;30.23;15.50;;;9.30;94.70;;;;;;5072437;28;20119;-82
2023/12/17 11:07:26;;;;;;;35.13;17.77;;;9.40;94.60;;;;;;5092230;28;20043;-83
2023/12/17 11:09:52;;;;;;;36.13;16.13;;;9.40;94.60;;;;;;5075326;28;20032;-84
2023/12/17 11:12:21;;;;;;;31.30;14.57;;;9.40;94.60;;;;;;5042373;28;20042;-82
2023/12/17 11:14:47;;;;;;;29.25;13.77;;;9.30;94.50;;;;;;5092425;28;20462;-84
2023/12/17 11:17:15;;;;;;;33.38;18.05;;;9.40;94.50;;;;;;5058429;28;20123;-84
2023/12/17 11:19:59;;;;;;;34.75;15.52;;;9.40;94.60;;;;;;5092320;28;20503;-83
2023/12/17 11:22:25;;;;;;;33.42;14.65;;;9.40;94.60;;;;;;5091961;28;20044;-83
2023/12/17 11:24:55;;;;;;;29.58;16.40;;;9.40;94.30;;;;;;5092074;28;20042;-80
2023/12/17 11:27:22;;;;;;;33.28;14.68;;;9.30;94.30;;;;;;5074759;28;20067;-82
2023/12/17 11:29:55;;;;;;;28.27;15.10;;;9.40;94.30;;;;;;5108745;28;20040;-84
2023/12/17 11:32:22;;;;;;;31.45;16.48;;;9.30;94.10;;;;;;5074920;28;20054;-84
2023/12/17 11:34:50;;;;;;;34.75;16.58;;;9.30;93.90;;;;;;5092063;28;20395;-83
2023/12/17 11:37:20;;;;;;;31.92;16.65;;;9.30;94.10;;;;;;5075216;28;20123;-83
2023/12/17 11:39:47;;;;;;;30.20;15.85;;;9.20;94.30;;;;;;5091804;28;20491;-83
2023/12/17 11:42:14;;;;;;;33.20;16.85;;;9.30;94.30;;;;;;5074839;28;20048;-82
2023/12/17 11:44:58;;;;;;;28.50;15.63;;;9.30;94.10;;;;;;5075179;28;20130;-83
2023/12/17 11:47:26;;;;;;;27.00;16.90;;;9.30;94.00;;;;;;5074999;28;20039;-82
2023/12/17 11:50:00;;;;;;;26.10;15.20;;;9.40;93.90;;;;;;5075116;28;20691;-81
2023/12/17 11:52:26;;;;;;;28.27;16.45;;;9.40;93.70;;;;;;5074944;28;20042;-83
2023/12/17 11:54:59;;;;;;;29.23;15.82;;;9.50;93.50;;;;;;5074887;28;20048;-81
2023/12/17 11:57:26;;;;;;;29.60;15.50;;;9.60;93.20;;;;;;5091642;28;20040;-84
2023/12/17 11:59:52;;;;;;;32.35;14.75;;;9.60;93.10;;;;;;5075052;28;20040;-85
2023/12/17 12:02:19;;;;;;;28.13;14.45;;;9.70;92.90;;;;;;5108538;28;20101;-83
2023/12/17 12:04:45;;;;;;;25.27;13.85;;;9.80;92.80;;;;;;5091586;28;20051;-81
2023/12/17 12:07:18;;;;;;;26.42;14.68;;;9.70;92.60;;;;;;5074940;28;20055;-83
2023/12/17 12:09:48;;;;;;;28.90;14.45;;;9.70;92.40;;;;;;5091795;28;20039;-82
2023/12/17 12:12:26;;;;;;;27.98;15.23;;;9.80;92.20;;;;;;5074683;28;20093;-84
2023/12/17 12:14:53;;;;;;;27.77;15.10;;;9.80;92.30;;;;;;5074905;28;20420;-83
2023/12/17 12:17:38;;;;;;;26.83;16.63;;;9.70;92.20;;;;;;5091367;28;20079;-82
2023/12/17 12:20:09;;;;;;;24.90;14.90;;;9.90;92.20;;;;;;5074802;28;20036;-85
2023/12/17 12:22:35;;;;;;;32.38;22.38;;;10.00;92.00;;;;;;5074547;28;20032;-81
2023/12/17 12:25:02;;;;;;;24.17;16.75;;;10.00;92.10;;;;;;5074778;28;20044;-82
2023/12/17 12:27:28;;;;;;;26.35;15.50;;;9.90;91.60;;;;;;5091596;28;20036;-82
2023/12/17 12:29:55;;;;;;;25.77;14.57;;;10.00;92.30;;;;;;5057836;28;20040;-82
2023/12/17 12:32:28;;;;;;;26.98;17.48;;;9.90;91.80;;;;;;5091337;28;20504;-82
2023/12/17 12:34:55;;;;;;;25.52;16.73;;;9.90;91.60;;;;;;5091281;28;20075;-84
2023/12/17 12:37:34;;;;;;;29.52;17.15;;;9.90;91.70;;;;;;5091579;28;20451;-82